sensor_id;sensor_type;location;lat;lon;timestamp;noise_LAeq;noise_LA_min;noise_LA_max;noise_LA01;noise_LA95
64077;Laerm;51039;49.696;10.808;2023-06-14T00:02:00;44.24;42.97;45.42;;
64077;Laerm;51039;49.696;10.808;2023-06-14T00:04:26;44.28;43.05;45.49;;
64077;Laerm;51039;49.696;10.808;2023-06-14T00:06:51;44.27;43.08;45.52;;
64077;Laerm;51039;49.696;10.808;2023-06-14T00:09:17;44.28;42.86;45.59;;
64077;Laerm;51039;49.696;10.808;2023-06-14T00:11:43;44.26;42.90;45.40;;
64077;Laerm;51039;49.696;10.808;2023-06-14T00:14:09;44.22;42.95;45.83;;
64077;Laerm;51039;49.696;10.808;2023-06-14T00:16:35;44.23;42.91;45.36;;
64077;Laerm;51039;49.696;10.808;2023-06-14T00:19:01;44.21;43.00;45.41;;
64077;Laerm;51039;49.696;10.808;2023-06-14T00:21:29;44.14;42.94;45.32;;
64077;Laerm;51039;49.696;10.808;2023-06-14T00:23:55;44.04;42.86;45.35;;
64077;Laerm;51039;49.696;10.808;2023-06-14T00:26:20;43.97;42.79;45.09;;
64077;Laerm;51039;49.696;10.808;2023-06-14T00:28:45;43.94;42.68;45.09;;
64077;Laerm;51039;49.696;10.808;2023-06-14T00:31:11;43.96;42.75;45.14;;
64077;Laerm;51039;49.696;10.808;2023-06-14T00:33:36;43.85;42.45;45.08;;
64077;Laerm;51039;49.696;10.808;2023-06-14T00:36:01;43.77;42.42;44.84;;
64077;Laerm;51039;49.696;10.808;2023-06-14T00:38:27;43.69;42.44;44.81;;
64077;Laerm;51039;49.696;10.808;2023-06-14T00:40:52;43.63;42.29;44.78;;
64077;Laerm;51039;49.696;10.808;2023-06-14T00:43:17;43.65;42.34;44.91;;
64077;Laerm;51039;49.696;10.808;2023-06-14T00:45:42;43.68;42.38;44.82;;
64077;Laerm;51039;49.696;10.808;2023-06-14T00:48:08;43.63;42.53;44.76;;
64077;Laerm;51039;49.696;10.808;2023-06-14T00:50:34;43.55;42.36;44.71;;
64077;Laerm;51039;49.696;10.808;2023-06-14T00:53:00;43.48;42.20;44.63;;
64077;Laerm;51039;49.696;10.808;2023-06-14T00:55:26;43.45;42.30;44.80;;
64077;Laerm;51039;49.696;10.808;2023-06-14T00:57:54;43.42;42.27;44.68;;
64077;Laerm;51039;49.696;10.808;2023-06-14T01:00:20;43.40;42.05;44.73;;
64077;Laerm;51039;49.696;10.808;2023-06-14T01:02:45;43.43;42.08;44.53;;
64077;Laerm;51039;49.696;10.808;2023-06-14T01:05:10;43.50;42.06;44.94;;
64077;Laerm;51039;49.696;10.808;2023-06-14T01:15:39;43.73;42.36;45.06;;
64077;Laerm;51039;49.696;10.808;2023-06-14T01:18:05;43.76;42.47;44.89;;
64077;Laerm;51039;49.696;10.808;2023-06-14T01:20:33;43.76;42.48;45.06;;
64077;Laerm;51039;49.696;10.808;2023-06-14T01:23:01;43.75;42.30;44.78;;
64077;Laerm;51039;49.696;10.808;2023-06-14T01:25:27;43.72;42.42;44.92;;
64077;Laerm;51039;49.696;10.808;2023-06-14T01:27:57;43.70;42.40;44.95;;
64077;Laerm;51039;49.696;10.808;2023-06-14T01:30:23;43.66;42.23;44.79;;
64077;Laerm;51039;49.696;10.808;2023-06-14T01:32:51;43.60;42.35;44.69;;
64077;Laerm;51039;49.696;10.808;2023-06-14T01:35:17;43.51;42.15;44.76;;
64077;Laerm;51039;49.696;10.808;2023-06-14T01:37:43;43.36;41.89;44.59;;
64077;Laerm;51039;49.696;10.808;2023-06-14T01:40:10;43.21;42.07;44.44;;
64077;Laerm;51039;49.696;10.808;2023-06-14T01:42:37;43.03;41.82;44.11;;
64077;Laerm;51039;49.696;10.808;2023-06-14T01:45:07;42.89;41.72;44.06;;
64077;Laerm;51039;49.696;10.808;2023-06-14T01:47:34;42.75;41.53;43.88;;
64077;Laerm;51039;49.696;10.808;2023-06-14T01:50:01;42.51;41.25;43.61;;
64077;Laerm;51039;49.696;10.808;2023-06-14T01:52:27;42.33;40.91;43.63;;
64077;Laerm;51039;49.696;10.808;2023-06-14T01:54:53;42.24;40.96;60.74;;
64077;Laerm;51039;49.696;10.808;2023-06-14T01:57:18;42.09;40.72;43.22;;
64077;Laerm;51039;49.696;10.808;2023-06-14T01:59:45;42.03;40.68;43.22;;
64077;Laerm;51039;49.696;10.808;2023-06-14T02:02:14;42.11;40.83;43.32;;
64077;Laerm;51039;49.696;10.808;2023-06-14T02:04:39;42.15;41.05;43.32;;
64077;Laerm;51039;49.696;10.808;2023-06-14T02:07:04;42.36;41.13;43.60;;
64077;Laerm;51039;49.696;10.808;2023-06-14T02:09:30;42.50;41.16;43.73;;
64077;Laerm;51039;49.696;10.808;2023-06-14T02:11:55;42.61;41.19;43.85;;
64077;Laerm;51039;49.696;10.808;2023-06-14T02:14:20;42.62;41.48;43.70;;
64077;Laerm;51039;49.696;10.808;2023-06-14T02:16:46;42.59;41.37;43.95;;
64077;Laerm;51039;49.696;10.808;2023-06-14T02:19:17;42.55;41.36;43.76;;
64077;Laerm;51039;49.696;10.808;2023-06-14T02:21:43;42.55;41.30;43.81;;
64077;Laerm;51039;49.696;10.808;2023-06-14T02:24:09;42.58;41.30;43.81;;
64077;Laerm;51039;49.696;10.808;2023-06-14T02:26:35;42.58;41.39;43.72;;
64077;Laerm;51039;49.696;10.808;2023-06-14T02:29:00;42.54;41.33;43.77;;
64077;Laerm;51039;49.696;10.808;2023-06-14T02:31:26;42.59;41.14;60.76;;
64077;Laerm;51039;49.696;10.808;2023-06-14T02:33:52;42.51;41.18;43.66;;
64077;Laerm;51039;49.696;10.808;2023-06-14T02:36:17;42.50;41.30;43.87;;
64077;Laerm;51039;49.696;10.808;2023-06-14T02:38:43;42.47;41.08;43.64;;
64077;Laerm;51039;49.696;10.808;2023-06-14T02:41:08;42.46;41.30;43.45;;
64077;Laerm;51039;49.696;10.808;2023-06-14T02:43:33;50.13;41.24;85.52;;
64077;Laerm;51039;49.696;10.808;2023-06-14T02:45:58;42.51;41.22;43.59;;
64077;Laerm;51039;49.696;10.808;2023-06-14T02:48:24;42.53;41.29;43.70;;
64077;Laerm;51039;49.696;10.808;2023-06-14T02:50:49;42.53;41.17;43.62;;
64077;Laerm;51039;49.696;10.808;2023-06-14T02:53:15;42.48;41.26;43.57;;
64077;Laerm;51039;49.696;10.808;2023-06-14T02:55:40;42.41;41.08;43.69;;
64077;Laerm;51039;49.696;10.808;2023-06-14T02:58:06;42.33;41.09;43.41;;
64077;Laerm;51039;49.696;10.808;2023-06-14T03:00:31;42.20;40.92;43.59;;
64077;Laerm;51039;49.696;10.808;2023-06-14T03:02:56;42.03;40.90;43.30;;
64077;Laerm;51039;49.696;10.808;2023-06-14T03:05:22;41.94;40.70;43.10;;
64077;Laerm;51039;49.696;10.808;2023-06-14T03:07:48;41.95;40.65;43.09;;
64077;Laerm;51039;49.696;10.808;2023-06-14T03:10:15;41.98;40.59;43.16;;
64077;Laerm;51039;49.696;10.808;2023-06-14T03:12:41;42.03;40.65;43.21;;
64077;Laerm;51039;49.696;10.808;2023-06-14T03:15:06;41.99;40.45;43.12;;
64077;Laerm;51039;49.696;10.808;2023-06-14T03:17:32;41.99;40.75;43.15;;
64077;Laerm;51039;49.696;10.808;2023-06-14T03:20:01;41.99;40.86;43.17;;
64077;Laerm;51039;49.696;10.808;2023-06-14T03:22:27;41.96;40.70;43.16;;
64077;Laerm;51039;49.696;10.808;2023-06-14T03:24:53;41.92;40.83;43.01;;
64077;Laerm;51039;49.696;10.808;2023-06-14T03:27:19;41.91;40.60;42.94;;
64077;Laerm;51039;49.696;10.808;2023-06-14T03:29:44;41.86;40.48;42.90;;
64077;Laerm;51039;49.696;10.808;2023-06-14T03:32:09;41.79;40.55;42.97;;
64077;Laerm;51039;49.696;10.808;2023-06-14T03:34:35;41.70;40.40;43.13;;
64077;Laerm;51039;49.696;10.808;2023-06-14T03:37:00;41.57;40.25;42.81;;
64077;Laerm;51039;49.696;10.808;2023-06-14T03:39:26;41.50;40.36;42.66;;
64077;Laerm;51039;49.696;10.808;2023-06-14T03:41:51;41.41;39.97;42.56;;
64077;Laerm;51039;49.696;10.808;2023-06-14T03:44:17;41.38;39.95;42.43;;
64077;Laerm;51039;49.696;10.808;2023-06-14T03:46:44;41.39;40.29;42.66;;
64077;Laerm;51039;49.696;10.808;2023-06-14T03:49:10;41.46;40.42;42.59;;
64077;Laerm;51039;49.696;10.808;2023-06-14T03:51:36;41.54;40.33;42.82;;
64077;Laerm;51039;49.696;10.808;2023-06-14T03:54:02;41.62;40.43;42.88;;
64077;Laerm;51039;49.696;10.808;2023-06-14T03:56:27;41.77;40.44;42.90;;
64077;Laerm;51039;49.696;10.808;2023-06-14T03:58:52;41.89;40.73;43.12;;
64077;Laerm;51039;49.696;10.808;2023-06-14T04:01:18;42.07;40.76;43.18;;
64077;Laerm;51039;49.696;10.808;2023-06-14T04:03:44;42.27;40.99;43.37;;
64077;Laerm;51039;49.696;10.808;2023-06-14T04:06:09;42.53;41.26;43.61;;
64077;Laerm;51039;49.696;10.808;2023-06-14T04:08:34;42.78;41.64;43.89;;
64077;Laerm;51039;49.696;10.808;2023-06-14T04:11:01;43.02;41.75;44.10;;
64077;Laerm;51039;49.696;10.808;2023-06-14T04:13:27;43.32;42.06;44.51;;
64077;Laerm;51039;49.696;10.808;2023-06-14T04:15:52;43.62;42.23;44.79;;
64077;Laerm;51039;49.696;10.808;2023-06-14T04:18:18;43.89;42.66;45.16;;
64077;Laerm;51039;49.696;10.808;2023-06-14T04:20:45;44.12;42.79;45.36;;
64077;Laerm;51039;49.696;10.808;2023-06-14T04:23:12;44.29;43.05;45.36;;
64077;Laerm;51039;49.696;10.808;2023-06-14T04:25:38;44.45;43.12;45.73;;
64077;Laerm;51039;49.696;10.808;2023-06-14T04:28:03;44.59;43.55;45.82;;
64077;Laerm;51039;49.696;10.808;2023-06-14T04:30:29;44.65;43.31;45.93;;
64077;Laerm;51039;49.696;10.808;2023-06-14T04:32:56;44.69;43.50;45.83;;
64077;Laerm;51039;49.696;10.808;2023-06-14T04:35:21;44.66;43.30;46.26;;
64077;Laerm;51039;49.696;10.808;2023-06-14T04:37:49;44.52;43.09;46.19;;
64077;Laerm;51039;49.696;10.808;2023-06-14T04:40:14;44.37;43.21;45.49;;
64077;Laerm;51039;49.696;10.808;2023-06-14T04:42:39;44.15;42.89;45.53;;
64077;Laerm;51039;49.696;10.808;2023-06-14T04:45:06;43.93;42.63;45.13;;
64077;Laerm;51039;49.696;10.808;2023-06-14T04:47:32;43.92;42.66;45.06;;
64077;Laerm;51039;49.696;10.808;2023-06-14T04:49:57;44.18;42.89;45.20;;
64077;Laerm;51039;49.696;10.808;2023-06-14T04:52:25;44.52;43.26;45.83;;
64077;Laerm;51039;49.696;10.808;2023-06-14T04:54:52;44.70;43.00;45.91;;
64077;Laerm;51039;49.696;10.808;2023-06-14T04:57:19;44.85;43.59;46.02;;
64077;Laerm;51039;49.696;10.808;2023-06-14T04:59:47;45.01;43.53;46.21;;
64077;Laerm;51039;49.696;10.808;2023-06-14T05:02:12;45.09;43.66;46.36;;
64077;Laerm;51039;49.696;10.808;2023-06-14T05:04:37;45.12;43.86;46.31;;
64077;Laerm;51039;49.696;10.808;2023-06-14T05:07:09;45.18;43.74;46.54;;
64077;Laerm;51039;49.696;10.808;2023-06-14T05:09:37;45.18;43.92;46.44;;
64077;Laerm;51039;49.696;10.808;2023-06-14T05:12:03;45.18;43.78;46.59;;
64077;Laerm;51039;49.696;10.808;2023-06-14T05:14:29;45.16;43.80;46.55;;
64077;Laerm;51039;49.696;10.808;2023-06-14T05:16:54;45.14;43.89;46.41;;
64077;Laerm;51039;49.696;10.808;2023-06-14T05:19:19;45.13;43.67;46.27;;
64077;Laerm;51039;49.696;10.808;2023-06-14T05:21:47;45.12;43.87;46.54;;
64077;Laerm;51039;49.696;10.808;2023-06-14T05:24:13;45.12;43.39;46.28;;
64077;Laerm;51039;49.696;10.808;2023-06-14T05:26:38;45.12;43.62;46.74;;
64077;Laerm;51039;49.696;10.808;2023-06-14T05:29:03;45.16;43.79;46.57;;
64077;Laerm;51039;49.696;10.808;2023-06-14T05:31:29;45.15;43.82;46.52;;
64077;Laerm;51039;49.696;10.808;2023-06-14T05:33:54;45.08;43.47;46.44;;
64077;Laerm;51039;49.696;10.808;2023-06-14T05:36:20;45.06;43.55;46.23;;
64077;Laerm;51039;49.696;10.808;2023-06-14T05:38:49;45.08;43.49;46.38;;
64077;Laerm;51039;49.696;10.808;2023-06-14T05:41:15;45.09;43.68;46.35;;
64077;Laerm;51039;49.696;10.808;2023-06-14T05:43:42;45.08;43.63;46.53;;
64077;Laerm;51039;49.696;10.808;2023-06-14T05:46:07;45.07;43.74;46.22;;
64077;Laerm;51039;49.696;10.808;2023-06-14T05:48:33;45.05;43.81;46.53;;
64077;Laerm;51039;49.696;10.808;2023-06-14T05:50:58;45.02;43.62;46.25;;
64077;Laerm;51039;49.696;10.808;2023-06-14T05:53:23;45.01;43.66;46.28;;
64077;Laerm;51039;49.696;10.808;2023-06-14T05:55:50;45.00;43.59;46.35;;
64077;Laerm;51039;49.696;10.808;2023-06-14T05:58:17;44.95;43.58;46.37;;
64077;Laerm;51039;49.696;10.808;2023-06-14T06:00:42;44.86;43.41;46.28;;
64077;Laerm;51039;49.696;10.808;2023-06-14T06:03:07;44.82;43.49;45.99;;
64077;Laerm;51039;49.696;10.808;2023-06-14T06:05:36;44.82;43.35;46.18;;
64077;Laerm;51039;49.696;10.808;2023-06-14T06:08:01;44.85;43.07;46.27;;
64077;Laerm;51039;49.696;10.808;2023-06-14T06:10:27;44.78;43.60;46.12;;
64077;Laerm;51039;49.696;10.808;2023-06-14T06:12:52;44.73;43.36;46.19;;
64077;Laerm;51039;49.696;10.808;2023-06-14T06:15:19;44.76;43.32;46.07;;
64077;Laerm;51039;49.696;10.808;2023-06-14T06:17:45;44.77;43.26;46.10;;
64077;Laerm;51039;49.696;10.808;2023-06-14T06:20:11;44.76;43.26;45.94;;
64077;Laerm;51039;49.696;10.808;2023-06-14T06:22:37;44.74;43.38;46.06;;
64077;Laerm;51039;49.696;10.808;2023-06-14T06:25:02;44.70;43.31;46.01;;
64077;Laerm;51039;49.696;10.808;2023-06-14T06:27:28;44.65;43.28;45.99;;
64077;Laerm;51039;49.696;10.808;2023-06-14T06:29:53;44.61;42.91;46.17;;
64077;Laerm;51039;49.696;10.808;2023-06-14T06:32:18;44.62;43.21;45.86;;
64077;Laerm;51039;49.696;10.808;2023-06-14T06:34:44;44.72;43.24;45.92;;
64077;Laerm;51039;49.696;10.808;2023-06-14T06:37:10;44.87;43.41;46.32;;
64077;Laerm;51039;49.696;10.808;2023-06-14T06:39:35;44.98;43.38;46.27;;
64077;Laerm;51039;49.696;10.808;2023-06-14T06:42:00;44.92;43.59;46.12;;
64077;Laerm;51039;49.696;10.808;2023-06-14T06:44:26;44.95;43.59;46.17;;
64077;Laerm;51039;49.696;10.808;2023-06-14T06:46:51;44.98;43.58;46.15;;
64077;Laerm;51039;49.696;10.808;2023-06-14T06:49:17;45.00;43.64;46.29;;
64077;Laerm;51039;49.696;10.808;2023-06-14T06:51:42;45.00;43.71;46.40;;
64077;Laerm;51039;49.696;10.808;2023-06-14T06:54:09;45.03;43.51;46.34;;
64077;Laerm;51039;49.696;10.808;2023-06-14T06:56:35;45.04;43.62;46.50;;
64077;Laerm;51039;49.696;10.808;2023-06-14T06:59:00;45.04;43.51;46.31;;
64077;Laerm;51039;49.696;10.808;2023-06-14T07:01:26;44.99;43.63;46.30;;
64077;Laerm;51039;49.696;10.808;2023-06-14T07:03:54;44.89;43.41;46.19;;
64077;Laerm;51039;49.696;10.808;2023-06-14T07:06:19;44.78;43.42;46.07;;
64077;Laerm;51039;49.696;10.808;2023-06-14T07:08:45;44.63;43.22;46.13;;
64077;Laerm;51039;49.696;10.808;2023-06-14T07:11:11;44.46;42.99;46.23;;
64077;Laerm;51039;49.696;10.808;2023-06-14T07:13:36;44.21;42.79;45.64;;
64077;Laerm;51039;49.696;10.808;2023-06-14T07:16:04;44.22;42.71;45.53;;
64077;Laerm;51039;49.696;10.808;2023-06-14T07:18:29;44.04;42.71;45.73;;
64077;Laerm;51039;49.696;10.808;2023-06-14T07:20:55;44.04;42.53;45.49;;
64077;Laerm;51039;49.696;10.808;2023-06-14T07:23:22;44.01;42.62;45.30;;
64077;Laerm;51039;49.696;10.808;2023-06-14T07:25:47;43.96;42.56;45.25;;
64077;Laerm;51039;49.696;10.808;2023-06-14T07:28:13;43.95;42.45;45.47;;
64077;Laerm;51039;49.696;10.808;2023-06-14T07:30:38;43.90;42.32;45.29;;
64077;Laerm;51039;49.696;10.808;2023-06-14T07:33:03;43.76;42.40;45.25;;
64077;Laerm;51039;49.696;10.808;2023-06-14T07:35:29;43.61;41.99;44.90;;
64077;Laerm;51039;49.696;10.808;2023-06-14T07:37:55;43.60;42.10;44.89;;
64077;Laerm;51039;49.696;10.808;2023-06-14T07:40:20;43.51;42.06;44.99;;
64077;Laerm;51039;49.696;10.808;2023-06-14T07:42:45;43.47;42.12;44.89;;
64077;Laerm;51039;49.696;10.808;2023-06-14T07:45:15;43.49;42.08;44.97;;
64077;Laerm;51039;49.696;10.808;2023-06-14T07:47:41;43.31;41.41;44.63;;
64077;Laerm;51039;49.696;10.808;2023-06-14T07:50:06;43.32;41.90;44.67;;
64077;Laerm;51039;49.696;10.808;2023-06-14T07:52:31;43.09;41.22;44.72;;
64077;Laerm;51039;49.696;10.808;2023-06-14T07:54:57;43.03;41.58;44.53;;
64077;Laerm;51039;49.696;10.808;2023-06-14T07:57:23;43.11;41.50;44.55;;
64077;Laerm;51039;49.696;10.808;2023-06-14T07:59:48;43.15;41.63;44.55;;
64077;Laerm;51039;49.696;10.808;2023-06-14T08:02:14;43.15;41.78;44.52;;
64077;Laerm;51039;49.696;10.808;2023-06-14T08:04:39;43.08;41.71;44.43;;
64077;Laerm;51039;49.696;10.808;2023-06-14T08:07:05;43.16;41.74;44.59;;
64077;Laerm;51039;49.696;10.808;2023-06-14T08:09:31;43.23;41.93;44.57;;
64077;Laerm;51039;49.696;10.808;2023-06-14T08:11:56;43.18;41.73;44.47;;
64077;Laerm;51039;49.696;10.808;2023-06-14T08:14:21;43.15;41.83;44.51;;
64077;Laerm;51039;49.696;10.808;2023-06-14T08:16:47;43.00;41.62;44.39;;
64077;Laerm;51039;49.696;10.808;2023-06-14T08:19:12;43.08;41.68;44.34;;
64077;Laerm;51039;49.696;10.808;2023-06-14T08:21:38;43.04;41.54;44.24;;
64077;Laerm;51039;49.696;10.808;2023-06-14T08:24:03;43.02;41.33;44.47;;
64077;Laerm;51039;49.696;10.808;2023-06-14T08:26:29;43.08;41.45;44.63;;
64077;Laerm;51039;49.696;10.808;2023-06-14T08:28:55;42.91;41.40;44.36;;
64077;Laerm;51039;49.696;10.808;2023-06-14T08:31:21;42.78;41.29;44.23;;
64077;Laerm;51039;49.696;10.808;2023-06-14T08:33:47;42.60;41.10;44.27;;
64077;Laerm;51039;49.696;10.808;2023-06-14T08:36:12;42.50;40.92;43.76;;
64077;Laerm;51039;49.696;10.808;2023-06-14T08:38:38;42.46;40.73;43.83;;
64077;Laerm;51039;49.696;10.808;2023-06-14T08:41:05;42.50;40.95;43.76;;
64077;Laerm;51039;49.696;10.808;2023-06-14T08:43:34;42.49;40.98;44.06;;
64077;Laerm;51039;49.696;10.808;2023-06-14T08:46:03;42.43;40.88;44.02;;
64077;Laerm;51039;49.696;10.808;2023-06-14T08:48:30;42.49;40.84;43.95;;
64077;Laerm;51039;49.696;10.808;2023-06-14T08:51:02;42.71;41.12;44.13;;
64077;Laerm;51039;49.696;10.808;2023-06-14T08:53:33;42.66;40.96;43.96;;
64077;Laerm;51039;49.696;10.808;2023-06-14T08:56:02;42.63;41.16;43.94;;
64077;Laerm;51039;49.696;10.808;2023-06-14T08:58:33;42.64;41.18;44.12;;
64077;Laerm;51039;49.696;10.808;2023-06-14T09:00:59;42.61;41.16;44.05;;
64077;Laerm;51039;49.696;10.808;2023-06-14T09:03:26;42.52;41.16;43.97;;
64077;Laerm;51039;49.696;10.808;2023-06-14T09:05:56;42.51;40.97;43.74;;
64077;Laerm;51039;49.696;10.808;2023-06-14T09:08:22;42.53;40.94;43.72;;
64077;Laerm;51039;49.696;10.808;2023-06-14T09:10:48;42.54;41.09;43.91;;
64077;Laerm;51039;49.696;10.808;2023-06-14T09:13:14;42.46;41.02;43.88;;
64077;Laerm;51039;49.696;10.808;2023-06-14T09:15:40;42.30;40.87;43.64;;
64077;Laerm;51039;49.696;10.808;2023-06-14T09:18:05;42.43;40.97;43.78;;
64077;Laerm;51039;49.696;10.808;2023-06-14T09:20:31;42.39;40.97;43.71;;
64077;Laerm;51039;49.696;10.808;2023-06-14T09:22:57;42.36;40.86;43.90;;
64077;Laerm;51039;49.696;10.808;2023-06-14T09:25:23;42.34;40.96;43.76;;
64077;Laerm;51039;49.696;10.808;2023-06-14T09:27:51;42.28;40.81;43.73;;
64077;Laerm;51039;49.696;10.808;2023-06-14T09:30:20;42.06;40.63;43.53;;
64077;Laerm;51039;49.696;10.808;2023-06-14T09:32:45;42.00;40.61;43.18;;
64077;Laerm;51039;49.696;10.808;2023-06-14T09:35:11;41.73;40.14;43.50;;
64077;Laerm;51039;49.696;10.808;2023-06-14T09:37:36;41.50;39.93;42.80;;
64077;Laerm;51039;49.696;10.808;2023-06-14T09:40:05;41.89;40.29;43.43;;
64077;Laerm;51039;49.696;10.808;2023-06-14T09:42:32;41.95;40.55;43.25;;
64077;Laerm;51039;49.696;10.808;2023-06-14T09:45:01;41.96;40.39;43.33;;
64077;Laerm;51039;49.696;10.808;2023-06-14T09:47:27;42.14;40.72;43.51;;
64077;Laerm;51039;49.696;10.808;2023-06-14T09:49:53;41.99;40.51;43.79;;
64077;Laerm;51039;49.696;10.808;2023-06-14T09:52:22;41.83;40.13;43.46;;
64077;Laerm;51039;49.696;10.808;2023-06-14T09:54:48;41.90;40.38;43.32;;
64077;Laerm;51039;49.696;10.808;2023-06-14T09:57:21;42.14;40.72;43.65;;
64077;Laerm;51039;49.696;10.808;2023-06-14T09:59:47;42.09;40.77;43.45;;
64077;Laerm;51039;49.696;10.808;2023-06-14T10:02:25;42.00;40.48;43.42;;
64077;Laerm;51039;49.696;10.808;2023-06-14T10:05:03;41.67;40.15;42.92;;
64077;Laerm;51039;49.696;10.808;2023-06-14T10:07:40;41.49;39.98;42.99;;
64077;Laerm;51039;49.696;10.808;2023-06-14T10:10:07;41.36;39.86;42.67;;
64077;Laerm;51039;49.696;10.808;2023-06-14T10:12:33;41.34;39.99;42.62;;
64077;Laerm;51039;49.696;10.808;2023-06-14T10:14:58;41.39;39.93;42.66;;
64077;Laerm;51039;49.696;10.808;2023-06-14T10:17:34;41.59;40.07;42.96;;
64077;Laerm;51039;49.696;10.808;2023-06-14T10:22:51;41.74;40.36;43.45;;
64077;Laerm;51039;49.696;10.808;2023-06-14T10:25:30;41.59;40.11;42.86;;
64077;Laerm;51039;49.696;10.808;2023-06-14T10:28:24;41.48;39.88;42.92;;
64077;Laerm;51039;49.696;10.808;2023-06-14T10:31:03;41.70;40.13;43.01;;
64077;Laerm;51039;49.696;10.808;2023-06-14T10:33:33;41.68;40.09;43.11;;
64077;Laerm;51039;49.696;10.808;2023-06-14T10:36:27;41.73;40.34;43.04;;
64077;Laerm;51039;49.696;10.808;2023-06-14T10:39:10;41.51;39.98;42.93;;
64077;Laerm;51039;49.696;10.808;2023-06-14T10:41:38;41.53;39.90;43.02;;
64077;Laerm;51039;49.696;10.808;2023-06-14T10:46:48;41.60;40.23;43.12;;
64077;Laerm;51039;49.696;10.808;2023-06-14T10:49:16;41.57;39.84;42.87;;
64077;Laerm;51039;49.696;10.808;2023-06-14T10:51:46;41.59;40.10;42.83;;
64077;Laerm;51039;49.696;10.808;2023-06-14T10:54:20;41.54;40.01;42.88;;
64077;Laerm;51039;49.696;10.808;2023-06-14T10:56:50;41.54;40.00;42.86;;
64077;Laerm;51039;49.696;10.808;2023-06-14T10:59:17;41.60;40.19;42.78;;
64077;Laerm;51039;49.696;10.808;2023-06-14T11:04:49;41.50;40.06;42.83;;
64077;Laerm;51039;49.696;10.808;2023-06-14T11:07:45;41.49;40.00;42.85;;
64077;Laerm;51039;49.696;10.808;2023-06-14T11:10:38;41.65;40.05;43.00;;
64077;Laerm;51039;49.696;10.808;2023-06-14T11:13:08;41.80;40.23;43.09;;
64077;Laerm;51039;49.696;10.808;2023-06-14T11:15:37;41.71;40.32;43.14;;
64077;Laerm;51039;49.696;10.808;2023-06-14T11:18:04;41.49;39.94;42.87;;
64077;Laerm;51039;49.696;10.808;2023-06-14T11:20:32;41.52;40.12;43.12;;
64077;Laerm;51039;49.696;10.808;2023-06-14T11:22:58;41.63;40.18;43.10;;
64077;Laerm;51039;49.696;10.808;2023-06-14T11:25:25;41.57;40.05;42.89;;
64077;Laerm;51039;49.696;10.808;2023-06-14T11:27:51;41.48;40.03;43.14;;
64077;Laerm;51039;49.696;10.808;2023-06-14T11:30:17;41.51;40.05;42.94;;
64077;Laerm;51039;49.696;10.808;2023-06-14T11:32:45;41.52;40.13;42.89;;
64077;Laerm;51039;49.696;10.808;2023-06-14T11:35:10;41.51;39.93;43.08;;
64077;Laerm;51039;49.696;10.808;2023-06-14T11:37:36;41.52;39.93;42.86;;
64077;Laerm;51039;49.696;10.808;2023-06-14T11:40:06;41.61;40.21;43.09;;
64077;Laerm;51039;49.696;10.808;2023-06-14T11:42:36;41.46;39.90;43.07;;
64077;Laerm;51039;49.696;10.808;2023-06-14T11:45:03;41.38;39.95;42.89;;
64077;Laerm;51039;49.696;10.808;2023-06-14T11:47:33;41.36;39.70;42.79;;
64077;Laerm;51039;49.696;10.808;2023-06-14T11:49:59;41.40;40.08;42.85;;
64077;Laerm;51039;49.696;10.808;2023-06-14T11:52:25;41.49;40.11;42.85;;
64077;Laerm;51039;49.696;10.808;2023-06-14T11:54:51;41.53;39.94;42.83;;
64077;Laerm;51039;49.696;10.808;2023-06-14T11:57:18;41.60;40.15;43.21;;
64077;Laerm;51039;49.696;10.808;2023-06-14T11:59:44;41.41;40.02;42.64;;
64077;Laerm;51039;49.696;10.808;2023-06-14T12:02:14;41.45;39.97;42.81;;
64077;Laerm;51039;49.696;10.808;2023-06-14T12:04:49;41.49;39.87;43.08;;
64077;Laerm;51039;49.696;10.808;2023-06-14T12:07:15;41.46;39.94;42.85;;
64077;Laerm;51039;49.696;10.808;2023-06-14T12:12:28;41.48;40.16;42.73;;
64077;Laerm;51039;49.696;10.808;2023-06-14T12:14:55;41.36;39.95;42.74;;
64077;Laerm;51039;49.696;10.808;2023-06-14T12:17:21;41.32;39.94;42.75;;
64077;Laerm;51039;49.696;10.808;2023-06-14T12:19:48;41.32;39.77;42.62;;
64077;Laerm;51039;49.696;10.808;2023-06-14T12:22:28;41.18;39.71;42.75;;
64077;Laerm;51039;49.696;10.808;2023-06-14T12:24:55;41.16;39.70;42.58;;
64077;Laerm;51039;49.696;10.808;2023-06-14T12:27:22;41.20;39.81;42.41;;
64077;Laerm;51039;49.696;10.808;2023-06-14T12:29:59;41.19;39.78;42.80;;
64077;Laerm;51039;49.696;10.808;2023-06-14T12:32:24;41.11;39.56;42.54;;
64077;Laerm;51039;49.696;10.808;2023-06-14T12:34:50;41.19;39.69;42.62;;
64077;Laerm;51039;49.696;10.808;2023-06-14T12:37:15;41.25;39.77;42.62;;
64077;Laerm;51039;49.696;10.808;2023-06-14T12:39:41;41.18;39.74;42.50;;
64077;Laerm;51039;49.696;10.808;2023-06-14T12:42:06;41.21;39.82;42.62;;
64077;Laerm;51039;49.696;10.808;2023-06-14T12:44:31;41.20;39.78;42.59;;
64077;Laerm;51039;49.696;10.808;2023-06-14T12:47:00;41.17;39.66;42.54;;
64077;Laerm;51039;49.696;10.808;2023-06-14T12:49:26;41.30;39.82;42.52;;
64077;Laerm;51039;49.696;10.808;2023-06-14T12:51:51;41.37;39.93;42.74;;
64077;Laerm;51039;49.696;10.808;2023-06-14T12:54:16;41.37;39.88;42.82;;
64077;Laerm;51039;49.696;10.808;2023-06-14T12:56:42;41.31;39.69;42.65;;
64077;Laerm;51039;49.696;10.808;2023-06-14T12:59:10;41.29;39.82;42.59;;
64077;Laerm;51039;49.696;10.808;2023-06-14T13:01:38;41.27;39.34;42.59;;
64077;Laerm;51039;49.696;10.808;2023-06-14T13:04:04;41.23;39.78;42.72;;
64077;Laerm;51039;49.696;10.808;2023-06-14T13:06:29;41.21;39.56;42.50;;
64077;Laerm;51039;49.696;10.808;2023-06-14T13:08:56;41.15;39.82;42.85;;
64077;Laerm;51039;49.696;10.808;2023-06-14T13:11:22;41.13;39.77;42.63;;
64077;Laerm;51039;49.696;10.808;2023-06-14T13:13:48;41.16;39.71;42.65;;
64077;Laerm;51039;49.696;10.808;2023-06-14T13:16:13;41.29;39.72;42.55;;
64077;Laerm;51039;49.696;10.808;2023-06-14T13:18:39;41.25;39.76;42.64;;
64077;Laerm;51039;49.696;10.808;2023-06-14T13:21:05;41.25;39.71;42.51;;
64077;Laerm;51039;49.696;10.808;2023-06-14T13:23:30;41.16;39.87;42.57;;
64077;Laerm;51039;49.696;10.808;2023-06-14T13:25:55;41.15;39.72;42.49;;
64077;Laerm;51039;49.696;10.808;2023-06-14T13:28:20;41.16;39.77;42.42;;
64077;Laerm;51039;49.696;10.808;2023-06-14T13:30:46;41.63;37.64;65.50;;
64077;Laerm;51039;49.696;10.808;2023-06-14T13:33:11;41.17;39.74;42.42;;
64077;Laerm;51039;49.696;10.808;2023-06-14T13:35:36;41.15;39.76;42.49;;
64077;Laerm;51039;49.696;10.808;2023-06-14T13:38:02;41.14;39.74;42.60;;
64077;Laerm;51039;49.696;10.808;2023-06-14T13:40:27;41.09;39.53;42.45;;
64077;Laerm;51039;49.696;10.808;2023-06-14T13:42:52;41.06;39.54;42.52;;
64077;Laerm;51039;49.696;10.808;2023-06-14T13:45:18;41.11;39.44;42.40;;
64077;Laerm;51039;49.696;10.808;2023-06-14T13:47:43;41.10;39.62;42.38;;
64077;Laerm;51039;49.696;10.808;2023-06-14T13:50:09;41.14;39.47;42.59;;